createdAt,value
2023-05-03T00:01:48.153Z,15.90
2023-05-03T00:04:17.005Z,13.95
2023-05-03T00:06:44.976Z,14.77
2023-05-03T00:09:12.349Z,17.45
2023-05-03T00:11:39.661Z,19.08
2023-05-03T00:14:06.935Z,15.52
2023-05-03T00:16:34.337Z,16.23
2023-05-03T00:19:01.673Z,17.25
2023-05-03T00:21:29.136Z,16.45
2023-05-03T00:23:56.536Z,19.58
2023-05-03T00:26:24.114Z,17.83
2023-05-03T00:28:51.460Z,18.35
2023-05-03T00:31:19.644Z,18.17
2023-05-03T00:33:47.023Z,18.92
2023-05-03T00:36:15.021Z,18.35
2023-05-03T00:38:42.366Z,18.52
2023-05-03T00:41:10.215Z,19.45
2023-05-03T00:43:37.875Z,18.58
2023-05-03T00:46:15.909Z,24.63
2023-05-03T00:48:49.195Z,18.48
2023-05-03T00:51:16.637Z,19.42
2023-05-03T00:53:43.995Z,22.83
2023-05-03T00:56:12.029Z,21.50
2023-05-03T00:58:40.623Z,23.83
2023-05-03T01:01:09.626Z,21.33
2023-05-03T01:03:39.701Z,18.05
2023-05-03T01:06:41.539Z,21.48
2023-05-03T01:09:11.111Z,25.40
2023-05-03T01:12:12.574Z,27.15
2023-05-03T01:14:58.508Z,25.27
2023-05-03T01:17:28.918Z,28.27
2023-05-03T01:20:11.263Z,24.92
2023-05-03T01:22:41.796Z,22.85
2023-05-03T01:25:12.873Z,29.13
2023-05-03T01:27:41.144Z,24.48
2023-05-03T01:30:12.527Z,25.48
2023-05-03T01:33:07.944Z,24.33
2023-05-03T01:35:52.936Z,25.40
2023-05-03T01:38:20.495Z,27.13
2023-05-03T01:40:55.920Z,22.70
2023-05-03T01:43:23.520Z,25.02
2023-05-03T01:45:50.986Z,23.80
2023-05-03T01:48:19.989Z,24.35
2023-05-03T01:50:47.331Z,23.80
2023-05-03T01:53:14.773Z,26.40
2023-05-03T01:55:43.729Z,25.92
2023-05-03T01:58:12.639Z,23.92
2023-05-03T02:00:39.979Z,28.00
2023-05-03T02:03:07.435Z,23.70
2023-05-03T02:05:35.487Z,28.55
2023-05-03T02:08:03.492Z,24.67
2023-05-03T02:10:30.779Z,23.77
2023-05-03T02:12:58.738Z,21.92
2023-05-03T02:15:26.103Z,27.70
2023-05-03T02:17:54.305Z,25.10
2023-05-03T02:20:22.032Z,24.30
2023-05-03T02:22:49.369Z,23.05
2023-05-03T02:25:16.657Z,22.60
2023-05-03T02:27:45.634Z,23.20
2023-05-03T02:30:13.462Z,24.48
2023-05-03T02:32:43.719Z,22.38
2023-05-03T02:35:11.388Z,23.27
2023-05-03T02:37:38.721Z,22.05
2023-05-03T02:40:11.270Z,23.30
2023-05-03T02:42:39.251Z,21.77
2023-05-03T02:45:08.467Z,21.10
2023-05-03T02:47:35.997Z,22.27
2023-05-03T02:50:03.688Z,22.50
2023-05-03T02:52:34.752Z,21.20
2023-05-03T02:55:02.294Z,20.75
2023-05-03T02:57:29.817Z,22.33
2023-05-03T02:59:58.548Z,21.98
2023-05-03T03:02:27.063Z,18.42
2023-05-03T03:04:54.704Z,21.65
2023-05-03T03:07:23.920Z,19.52
2023-05-03T03:09:55.313Z,18.10
2023-05-03T03:12:22.734Z,18.73
2023-05-03T03:14:50.332Z,20.80
2023-05-03T03:17:17.630Z,18.70
2023-05-03T03:19:45.009Z,15.05
2023-05-03T03:22:13.081Z,16.15
2023-05-03T03:24:40.488Z,15.82
2023-05-03T03:27:07.864Z,17.10
2023-05-03T03:29:35.552Z,15.68
2023-05-03T03:32:05.116Z,15.88
2023-05-03T03:34:33.102Z,15.70
2023-05-03T03:37:01.036Z,22.77
2023-05-03T03:39:29.354Z,18.95
2023-05-03T03:41:56.763Z,19.17
2023-05-03T03:44:24.143Z,20.58
2023-05-03T03:46:51.513Z,21.30
2023-05-03T03:49:19.631Z,21.98
2023-05-03T03:51:47.066Z,18.80
2023-05-03T03:54:14.627Z,20.83
2023-05-03T03:56:46.376Z,21.02
2023-05-03T03:59:13.918Z,18.73
2023-05-03T04:01:41.836Z,26.00
2023-05-03T04:04:10.070Z,26.73
2023-05-03T04:06:38.158Z,31.80
2023-05-03T04:09:10.462Z,40.00
2023-05-03T04:11:38.114Z,31.73
2023-05-03T04:14:06.315Z,58.63
2023-05-03T04:16:33.917Z,37.20
2023-05-03T04:19:03.644Z,45.00
2023-05-03T04:21:32.906Z,43.75
2023-05-03T04:24:04.427Z,32.80
2023-05-03T04:26:32.959Z,37.83
2023-05-03T04:29:10.843Z,61.38
2023-05-03T04:31:39.760Z,63.72
2023-05-03T04:34:07.750Z,26.15
2023-05-03T04:36:35.656Z,38.03
2023-05-03T04:39:03.727Z,24.08
2023-05-03T04:41:32.294Z,96.63
2023-05-03T04:43:59.812Z,27.17
2023-05-03T04:46:28.162Z,32.78
2023-05-03T04:48:56.457Z,37.78
2023-05-03T04:51:24.124Z,41.50
2023-05-03T04:53:53.412Z,47.05
2023-05-03T04:56:26.266Z,90.20
2023-05-03T04:58:59.191Z,21.73
2023-05-03T05:01:28.211Z,24.42
2023-05-03T05:03:59.904Z,22.90
2023-05-03T05:06:34.496Z,43.97
2023-05-03T05:09:02.918Z,51.60
2023-05-03T05:11:30.238Z,53.10
2023-05-03T05:13:58.481Z,48.50
2023-05-03T05:16:26.752Z,29.27
2023-05-03T05:18:54.590Z,39.75
2023-05-03T05:21:25.632Z,20.98
2023-05-03T05:23:53.167Z,46.38
2023-05-03T05:26:20.939Z,127.97
2023-05-03T05:28:49.993Z,45.58
2023-05-03T05:31:17.454Z,44.97
2023-05-03T05:33:44.776Z,56.38
2023-05-03T05:36:13.093Z,27.58
2023-05-03T05:38:41.492Z,51.97
2023-05-03T05:41:13.173Z,52.45
2023-05-03T05:43:43.085Z,79.10
2023-05-03T05:46:10.699Z,54.70
2023-05-03T05:48:39.302Z,36.53
2023-05-03T05:51:07.534Z,49.55
2023-05-03T05:53:34.893Z,57.15
2023-05-03T05:56:03.137Z,50.47
2023-05-03T05:58:32.958Z,59.78
2023-05-03T06:01:01.457Z,55.67
2023-05-03T06:03:31.855Z,39.47
2023-05-03T06:06:01.356Z,36.72
2023-05-03T06:08:28.827Z,59.13
2023-05-03T06:10:56.185Z,48.25
2023-05-03T06:13:25.015Z,41.15
2023-05-03T06:15:52.594Z,46.85
2023-05-03T06:18:20.042Z,55.80
2023-05-03T06:20:50.732Z,46.63
2023-05-03T06:23:19.293Z,35.63
2023-05-03T06:25:47.683Z,39.83
2023-05-03T06:28:17.178Z,48.08
2023-05-03T06:30:51.838Z,41.45
2023-05-03T06:35:49.348Z,51.67
2023-05-03T06:38:18.584Z,40.97
2023-05-03T06:40:46.823Z,42.40
2023-05-03T06:43:14.301Z,33.47
2023-05-03T06:45:51.594Z,42.58
2023-05-03T06:48:19.351Z,34.58
2023-05-03T06:50:46.844Z,36.72
2023-05-03T06:53:15.595Z,38.08
2023-05-03T06:55:46.398Z,40.20
2023-05-03T06:58:13.737Z,37.88
2023-05-03T07:00:41.189Z,38.92
2023-05-03T07:03:08.716Z,37.90
2023-05-03T07:05:36.357Z,41.95
2023-05-03T07:08:03.856Z,36.35
2023-05-03T07:10:31.611Z,40.95
2023-05-03T07:12:59.191Z,36.63
2023-05-03T07:15:26.567Z,39.90
2023-05-03T07:17:53.958Z,41.28
2023-05-03T07:20:21.549Z,39.65
2023-05-03T07:22:48.914Z,41.88
2023-05-03T07:25:17.832Z,58.80
2023-05-03T07:27:45.497Z,47.28
2023-05-03T07:30:13.245Z,49.88
2023-05-03T07:32:40.897Z,47.15
2023-05-03T07:35:09.267Z,42.15
2023-05-03T07:37:38.552Z,54.42
2023-05-03T07:40:07.208Z,52.55
2023-05-03T07:42:34.557Z,52.50
2023-05-03T07:45:02.369Z,47.22
2023-05-03T07:47:29.888Z,45.92
2023-05-03T07:49:57.211Z,47.97
2023-05-03T07:52:24.578Z,45.65
2023-05-03T07:54:53.260Z,53.35
2023-05-03T07:57:23.279Z,51.97
2023-05-03T07:59:51.046Z,47.90
2023-05-03T08:02:18.486Z,47.13
2023-05-03T08:04:46.242Z,52.88
2023-05-03T08:07:14.390Z,46.17
2023-05-03T08:09:41.817Z,58.83
2023-05-03T08:12:09.242Z,65.80
2023-05-03T08:14:37.684Z,57.20
2023-05-03T08:17:05.071Z,51.15
2023-05-03T08:19:32.426Z,50.05
2023-05-03T08:21:59.902Z,44.92
2023-05-03T08:24:27.223Z,45.70
2023-05-03T08:26:55.325Z,43.10
2023-05-03T08:29:22.784Z,45.63
2023-05-03T08:31:50.268Z,45.03
2023-05-03T08:34:17.801Z,47.30
2023-05-03T08:36:45.162Z,48.60
2023-05-03T08:39:15.270Z,46.92
2023-05-03T08:41:42.803Z,48.13
2023-05-03T08:44:12.129Z,47.42
2023-05-03T08:46:39.543Z,51.30
2023-05-03T08:49:07.476Z,51.17
2023-05-03T08:51:35.965Z,50.55
2023-05-03T08:54:03.971Z,48.42
2023-05-03T08:56:44.384Z,47.13
2023-05-03T08:59:11.927Z,56.75
2023-05-03T09:01:40.418Z,49.25
2023-05-03T09:04:09.779Z,48.45
2023-05-03T09:06:37.347Z,53.03
2023-05-03T09:09:07.510Z,50.75
2023-05-03T09:11:36.158Z,49.72
2023-05-03T09:14:14.737Z,46.33
2023-05-03T09:16:44.580Z,49.28
2023-05-03T09:19:13.008Z,49.22
2023-05-03T09:21:41.154Z,48.90
2023-05-03T09:24:27.269Z,53.90
2023-05-03T09:26:58.543Z,51.50
2023-05-03T09:29:30.889Z,48.30
2023-05-03T09:32:00.521Z,51.67
2023-05-03T09:34:28.025Z,48.47
2023-05-03T09:36:56.282Z,48.67
2023-05-03T09:39:23.781Z,59.05
2023-05-03T09:41:51.212Z,50.08
2023-05-03T09:44:18.542Z,45.85
2023-05-03T09:47:05.096Z,48.80
2023-05-03T09:49:33.066Z,40.50
2023-05-03T09:52:01.277Z,43.83
2023-05-03T09:54:31.276Z,46.70
2023-05-03T09:56:59.213Z,46.05
2023-05-03T09:59:26.735Z,41.58
2023-05-03T10:01:58.877Z,49.50
2023-05-03T10:04:28.057Z,45.45
2023-05-03T10:07:00.497Z,50.65
2023-05-03T10:09:38.126Z,51.83
2023-05-03T10:12:07.532Z,47.63
2023-05-03T10:14:35.485Z,45.33
2023-05-03T10:17:04.641Z,50.38
2023-05-03T10:19:37.885Z,50.20
2023-05-03T10:22:09.595Z,43.17
2023-05-03T10:25:02.565Z,47.75
2023-05-03T10:27:48.660Z,44.40
2023-05-03T10:30:33.103Z,48.65
2023-05-03T10:33:09.786Z,48.72
2023-05-03T10:35:39.973Z,46.95
2023-05-03T10:38:24.089Z,47.03
2023-05-03T10:40:52.054Z,49.13
2023-05-03T10:43:34.529Z,46.13
2023-05-03T10:46:05.986Z,50.65
2023-05-03T10:48:33.831Z,49.47
2023-05-03T10:51:30.669Z,46.55
2023-05-03T10:53:58.075Z,46.58
2023-05-03T10:56:25.741Z,43.50
2023-05-03T10:58:56.896Z,43.00
2023-05-03T11:01:25.259Z,49.40
2023-05-03T11:04:06.547Z,43.53
2023-05-03T11:06:36.059Z,44.97
2023-05-03T11:09:06.056Z,39.25
2023-05-03T11:11:34.724Z,38.60
2023-05-03T11:14:02.144Z,47.47
2023-05-03T11:16:29.689Z,43.67
2023-05-03T11:18:57.059Z,45.70
2023-05-03T11:21:24.402Z,45.17
2023-05-03T11:23:51.757Z,43.90
2023-05-03T11:26:22.421Z,47.08
2023-05-03T11:28:49.809Z,41.90
2023-05-03T11:31:17.197Z,36.38
2023-05-03T11:33:46.546Z,41.70
2023-05-03T11:36:15.259Z,40.45
2023-05-03T11:38:42.583Z,40.80
2023-05-03T11:41:16.809Z,41.83
2023-05-03T11:46:13.590Z,39.38
2023-05-03T11:48:42.689Z,38.08
2023-05-03T11:51:13.817Z,38.50
2023-05-03T11:53:42.834Z,37.90
2023-05-03T11:56:13.963Z,37.30
2023-05-03T11:58:56.037Z,34.65
2023-05-03T12:01:24.927Z,33.35
2023-05-03T12:04:00.140Z,34.38
2023-05-03T12:06:28.955Z,32.47
2023-05-03T12:08:57.332Z,34.38
2023-05-03T12:11:27.081Z,33.70
2023-05-03T12:13:58.964Z,33.40
2023-05-03T12:16:27.101Z,35.10
2023-05-03T12:18:58.799Z,32.35
2023-05-03T12:24:33.267Z,29.15
2023-05-03T12:27:03.234Z,29.35
2023-05-03T12:29:35.421Z,28.05
2023-05-03T12:32:04.827Z,34.47
2023-05-03T12:34:36.200Z,23.40
2023-05-03T12:37:05.588Z,25.17
2023-05-03T12:39:34.495Z,22.52
2023-05-03T12:42:08.052Z,21.15
2023-05-03T12:44:41.424Z,19.52
2023-05-03T12:47:10.538Z,21.80
2023-05-03T12:49:39.333Z,18.48
2023-05-03T12:54:41.529Z,30.70
2023-05-03T12:57:15.577Z,22.90
2023-05-03T12:59:44.238Z,22.77
2023-05-03T13:03:19.353Z,18.63
2023-05-03T13:05:12.067Z,18.27
2023-05-03T13:07:55.584Z,22.80
2023-05-03T13:10:24.598Z,19.58
2023-05-03T13:12:53.851Z,19.40
2023-05-03T13:15:21.212Z,19.02
2023-05-03T13:17:50.136Z,19.42
2023-05-03T13:20:20.316Z,20.50
2023-05-03T13:22:48.992Z,28.80
2023-05-03T13:25:16.485Z,24.25
2023-05-03T13:27:44.194Z,22.35
2023-05-03T13:30:11.777Z,22.95
2023-05-03T13:32:39.158Z,22.60
2023-05-03T13:35:07.707Z,20.25
2023-05-03T13:37:35.399Z,19.63
2023-05-03T13:40:03.046Z,24.10
2023-05-03T13:42:30.619Z,24.35
2023-05-03T13:44:58.658Z,23.20
2023-05-03T13:47:29.128Z,21.27
2023-05-03T13:50:00.696Z,21.88
2023-05-03T13:52:28.068Z,23.45
2023-05-03T13:54:55.530Z,19.35
2023-05-03T13:57:23.124Z,18.38
2023-05-03T13:59:50.988Z,19.20
2023-05-03T14:02:18.392Z,15.65
2023-05-03T14:04:46.476Z,14.27
2023-05-03T14:07:13.856Z,13.88
2023-05-03T14:09:42.179Z,19.70
2023-05-03T14:12:10.010Z,14.80
2023-05-03T14:14:37.491Z,13.68
2023-05-03T14:17:30.480Z,16.33
2023-05-03T14:20:01.160Z,12.93
2023-05-03T14:22:29.115Z,17.70
2023-05-03T14:24:56.697Z,10.88
2023-05-03T14:27:24.295Z,9.15
2023-05-03T14:29:51.931Z,8.98
2023-05-03T14:32:20.433Z,9.10
2023-05-03T14:34:47.976Z,11.20
2023-05-03T14:37:15.514Z,11.85
2023-05-03T14:39:42.834Z,10.77
2023-05-03T14:42:10.794Z,6.60
2023-05-03T14:44:38.223Z,9.07
2023-05-03T14:47:07.301Z,8.73
2023-05-03T14:49:40.487Z,10.90
2023-05-03T14:52:08.817Z,7.80
2023-05-03T14:54:37.343Z,18.27
2023-05-03T14:57:04.972Z,9.80
2023-05-03T14:59:33.249Z,17.17
2023-05-03T15:02:01.030Z,8.95
2023-05-03T15:04:29.132Z,9.25
2023-05-03T15:07:00.903Z,9.15
2023-05-03T15:09:28.605Z,8.98
2023-05-03T15:11:56.032Z,9.88
2023-05-03T15:14:23.533Z,9.55
2023-05-03T15:16:51.039Z,12.30
2023-05-03T15:19:18.431Z,9.45
2023-05-03T15:21:50.591Z,9.63
2023-05-03T15:24:18.032Z,10.73
2023-05-03T15:26:46.833Z,12.60
2023-05-03T15:29:15.318Z,14.18
2023-05-03T15:31:43.655Z,11.00
2023-05-03T15:34:12.321Z,11.60
2023-05-03T15:36:40.667Z,10.75
2023-05-03T15:39:09.327Z,11.90
2023-05-03T15:41:36.851Z,12.88
2023-05-03T15:44:05.508Z,9.27
2023-05-03T15:46:34.220Z,16.05
2023-05-03T15:49:01.855Z,13.00
2023-05-03T15:51:29.350Z,12.70
2023-05-03T15:53:56.788Z,12.35
2023-05-03T15:56:24.466Z,8.38
2023-05-03T15:58:51.847Z,11.43
2023-05-03T16:01:19.285Z,8.75
2023-05-03T16:03:47.994Z,11.68
2023-05-03T16:06:18.518Z,11.98
2023-05-03T16:08:45.980Z,12.48
2023-05-03T16:11:13.434Z,14.90
2023-05-03T16:13:40.952Z,12.43
2023-05-03T16:16:08.426Z,14.05
2023-05-03T16:18:35.914Z,12.80
2023-05-03T16:21:03.418Z,10.75
2023-05-03T16:23:30.907Z,12.70
2023-05-03T16:25:58.261Z,15.32
2023-05-03T16:28:25.606Z,14.02
2023-05-03T16:30:52.998Z,11.82
2023-05-03T16:33:20.418Z,15.27
2023-05-03T16:35:47.771Z,11.48
2023-05-03T16:38:15.093Z,12.38
2023-05-03T16:40:43.285Z,11.35
2023-05-03T16:43:10.656Z,11.52
2023-05-03T16:45:38.067Z,9.55
2023-05-03T16:48:08.151Z,13.05
2023-05-03T16:50:37.686Z,8.60
2023-05-03T16:53:05.202Z,10.98
2023-05-03T16:55:32.542Z,9.32
2023-05-03T16:58:00.081Z,10.98
2023-05-03T17:00:28.983Z,11.18
2023-05-03T17:02:56.619Z,10.80
2023-05-03T17:05:25.577Z,12.38
2023-05-03T17:07:53.037Z,11.10
2023-05-03T17:10:20.498Z,13.05
2023-05-03T17:12:48.167Z,19.33
2023-05-03T17:15:16.862Z,10.48
2023-05-03T17:17:44.287Z,10.02
2023-05-03T17:20:12.927Z,11.10
2023-05-03T17:22:40.350Z,10.05
2023-05-03T17:25:08.647Z,11.90
2023-05-03T17:27:39.033Z,11.93
2023-05-03T17:30:07.350Z,8.43
2023-05-03T17:32:34.867Z,10.52
2023-05-03T17:35:02.622Z,11.52
2023-05-03T17:37:29.978Z,13.05
2023-05-03T17:39:58.091Z,9.45
2023-05-03T17:42:25.908Z,9.55
2023-05-03T17:44:54.808Z,12.88
2023-05-03T17:47:22.981Z,10.35
2023-05-03T17:49:50.643Z,9.65
2023-05-03T17:52:18.164Z,9.57
2023-05-03T17:54:46.268Z,9.75
2023-05-03T17:57:13.603Z,9.82
2023-05-03T17:59:40.984Z,8.50
2023-05-03T18:02:09.030Z,11.25
2023-05-03T18:04:36.468Z,9.57
2023-05-03T18:07:03.792Z,12.55
2023-05-03T18:09:33.010Z,11.52
2023-05-03T18:12:01.977Z,10.70
2023-05-03T18:14:29.504Z,9.90
2023-05-03T18:16:57.106Z,10.43
2023-05-03T18:19:24.513Z,9.68
2023-05-03T18:21:51.976Z,10.15
2023-05-03T18:24:19.359Z,9.32
2023-05-03T18:26:47.171Z,12.25
2023-05-03T18:29:14.815Z,10.43
2023-05-03T18:31:42.256Z,167.80
2023-05-03T18:34:09.750Z,33.45
2023-05-03T18:36:37.127Z,14.18
2023-05-03T18:39:04.893Z,13.38
2023-05-03T18:41:32.304Z,12.55
2023-05-03T18:43:59.675Z,11.43
2023-05-03T18:46:27.190Z,11.75
2023-05-03T18:48:54.721Z,12.80
2023-05-03T18:51:23.149Z,12.43
2023-05-03T18:53:50.594Z,11.13
2023-05-03T18:56:17.958Z,14.65
2023-05-03T18:58:47.288Z,14.70
2023-05-03T19:01:14.687Z,14.02
2023-05-03T19:03:42.060Z,15.23
2023-05-03T19:06:10.060Z,14.25
2023-05-03T19:08:37.498Z,13.18
2023-05-03T19:11:09.046Z,14.73
2023-05-03T19:13:36.503Z,16.38
2023-05-03T19:16:04.075Z,14.80
2023-05-03T19:18:31.937Z,17.13
2023-05-03T19:20:59.490Z,16.20
2023-05-03T19:23:27.184Z,19.60
2023-05-03T19:25:54.582Z,16.40
2023-05-03T19:28:22.005Z,16.67
2023-05-03T19:30:51.887Z,15.80
2023-05-03T19:33:19.922Z,21.58
2023-05-03T19:35:47.591Z,20.98
2023-05-03T19:38:14.985Z,15.98
2023-05-03T19:40:42.502Z,16.88
2023-05-03T19:43:09.853Z,17.00
2023-05-03T19:45:46.373Z,18.08
2023-05-03T19:48:16.551Z,20.17
2023-05-03T19:50:44.605Z,20.17
2023-05-03T19:53:12.005Z,21.80
2023-05-03T19:55:39.331Z,27.00
2023-05-03T19:58:07.416Z,21.35
2023-05-03T20:00:34.825Z,21.90
2023-05-03T20:03:02.313Z,19.83
2023-05-03T20:05:29.730Z,22.38
2023-05-03T20:07:57.046Z,18.45
2023-05-03T20:10:24.801Z,20.70
2023-05-03T20:12:52.207Z,23.92
2023-05-03T20:15:19.605Z,23.17
2023-05-03T20:17:46.897Z,18.17
2023-05-03T20:20:16.326Z,20.13
2023-05-03T20:22:43.601Z,18.40
2023-05-03T20:25:11.020Z,32.75
2023-05-03T20:27:38.312Z,20.75
2023-05-03T20:30:06.625Z,18.80
2023-05-03T20:32:36.369Z,22.95
2023-05-03T20:35:05.017Z,20.27
2023-05-03T20:37:32.525Z,20.20
2023-05-03T20:40:00.187Z,22.30
2023-05-03T20:42:27.542Z,25.60
2023-05-03T20:44:54.872Z,20.27
2023-05-03T20:47:22.330Z,20.65
2023-05-03T20:49:49.653Z,24.27
2023-05-03T20:52:17.361Z,22.60
2023-05-03T20:54:46.536Z,23.02
2023-05-03T20:57:15.893Z,23.02
2023-05-03T20:59:44.283Z,24.42
2023-05-03T21:02:12.233Z,21.88
2023-05-03T21:04:39.668Z,25.23
2023-05-03T21:07:07.024Z,24.58
2023-05-03T21:09:34.419Z,18.83
2023-05-03T21:12:04.044Z,24.90
2023-05-03T21:14:31.458Z,19.98
2023-05-03T21:16:59.046Z,23.23
2023-05-03T21:19:26.508Z,19.48
2023-05-03T21:21:54.071Z,17.20
2023-05-03T21:24:21.457Z,18.85
2023-05-03T21:26:48.953Z,21.50
2023-05-03T21:29:17.350Z,21.05
2023-05-03T21:31:44.774Z,22.52
2023-05-03T21:34:12.098Z,22.73
2023-05-03T21:36:39.556Z,22.17
2023-05-03T21:39:07.081Z,20.42
2023-05-03T21:41:34.720Z,21.10
2023-05-03T21:44:02.257Z,19.90
2023-05-03T21:46:29.606Z,23.92
2023-05-03T21:48:57.076Z,19.42
2023-05-03T21:51:25.626Z,21.27
2023-05-03T21:53:53.506Z,21.50
2023-05-03T21:56:20.895Z,20.30
2023-05-03T21:58:48.328Z,22.98
2023-05-03T22:01:16.767Z,22.58
2023-05-03T22:03:44.358Z,19.02
2023-05-03T22:06:12.142Z,18.98
2023-05-03T22:08:39.452Z,21.08
2023-05-03T22:11:07.177Z,20.40
2023-05-03T22:13:39.129Z,20.52
2023-05-03T22:16:12.388Z,17.77
2023-05-03T22:18:39.872Z,23.52
2023-05-03T22:21:07.331Z,23.40
2023-05-03T22:23:34.804Z,24.73
2023-05-03T22:26:02.375Z,21.45
2023-05-03T22:28:29.658Z,25.42
2023-05-03T22:30:57.477Z,21.40
2023-05-03T22:33:24.967Z,20.23
2023-05-03T22:35:52.384Z,20.42
2023-05-03T22:38:19.680Z,21.60
2023-05-03T22:40:47.062Z,23.73
2023-05-03T22:43:14.409Z,20.65
2023-05-03T22:45:41.937Z,23.55
2023-05-03T22:48:09.367Z,23.13
2023-05-03T22:50:36.866Z,22.63
2023-05-03T22:53:04.239Z,21.27
2023-05-03T22:55:31.604Z,25.95
2023-05-03T22:57:58.985Z,26.00
2023-05-03T23:00:26.892Z,21.77
2023-05-03T23:02:54.751Z,26.17
2023-05-03T23:05:22.308Z,26.88
2023-05-03T23:07:49.774Z,25.40
2023-05-03T23:10:17.285Z,24.47
2023-05-03T23:12:44.976Z,28.42
2023-05-03T23:15:12.483Z,28.00
2023-05-03T23:17:40.008Z,26.83
2023-05-03T23:20:08.660Z,30.13
2023-05-03T23:22:35.937Z,29.27
2023-05-03T23:25:03.639Z,26.25
2023-05-03T23:27:31.440Z,26.08
2023-05-03T23:29:59.377Z,26.02
2023-05-03T23:32:27.169Z,26.92
2023-05-03T23:34:54.922Z,30.70
2023-05-03T23:37:22.232Z,26.52
2023-05-03T23:39:49.613Z,24.38
2023-05-03T23:42:16.915Z,24.10
2023-05-03T23:44:54.641Z,30.02
2023-05-03T23:47:23.086Z,27.98
2023-05-03T23:49:50.960Z,31.35
2023-05-03T23:52:19.923Z,32.10
2023-05-03T23:54:47.450Z,27.85
2023-05-03T23:57:14.818Z,27.52
2023-05-03T23:59:42.250Z,31.02
